createdAt,value
2018-03-14T00:00:54.571Z,3.53
2018-03-14T00:06:22.820Z,3.30
2018-03-14T00:11:51.006Z,3.20
2018-03-14T00:17:20.868Z,2.90
2018-03-14T00:22:49.078Z,4.40
2018-03-14T00:28:17.981Z,4.47
2018-03-14T00:33:46.134Z,3.40
2018-03-14T00:39:15.043Z,2.63
2018-03-14T00:44:43.202Z,1.97
2018-03-14T00:50:12.160Z,1.90
2018-03-14T00:55:40.345Z,1.90
2018-03-14T01:01:08.507Z,2.17
2018-03-14T01:06:36.652Z,2.20
2018-03-14T01:12:05.743Z,2.57
2018-03-14T01:17:34.679Z,3.10
2018-03-14T01:23:03.604Z,1.67
2018-03-14T01:28:32.529Z,1.63
2018-03-14T01:34:08.111Z,1.57
2018-03-14T01:39:36.270Z,1.40
2018-03-14T01:45:05.157Z,1.20
2018-03-14T01:50:33.336Z,1.77
2018-03-14T01:56:02.263Z,1.80
2018-03-14T02:01:31.177Z,2.20
2018-03-14T02:06:59.313Z,1.80
2018-03-14T02:12:28.268Z,2.33
2018-03-14T02:17:56.423Z,2.60
2018-03-14T02:23:24.688Z,3.17
2018-03-14T02:28:52.903Z,2.90
2018-03-14T02:34:21.824Z,2.87
2018-03-14T02:39:49.969Z,3.53
2018-03-14T02:45:18.861Z,3.73
2018-03-14T02:50:46.990Z,3.47
2018-03-14T02:56:15.126Z,3.00
2018-03-14T03:01:43.283Z,3.80
2018-03-14T03:07:13.154Z,3.13
2018-03-14T03:12:41.292Z,4.07
2018-03-14T03:18:09.433Z,3.70
2018-03-14T03:23:38.491Z,4.10
2018-03-14T03:29:06.641Z,4.20
2018-03-14T03:34:35.541Z,3.03
2018-03-14T03:40:03.690Z,3.83
2018-03-14T03:45:32.599Z,3.73
2018-03-14T03:51:00.931Z,3.80
2018-03-14T03:56:29.105Z,3.93
2018-03-14T04:01:57.302Z,3.80
2018-03-14T04:07:25.653Z,3.80
2018-03-14T04:12:53.838Z,4.70
2018-03-14T04:18:22.747Z,5.57
2018-03-14T04:23:50.934Z,5.20
2018-03-14T04:29:20.043Z,5.53
2018-03-14T04:34:48.430Z,5.60
2018-03-14T04:40:16.586Z,6.37
2018-03-14T04:45:45.535Z,5.03
2018-03-14T04:51:13.661Z,4.67
2018-03-14T04:56:41.822Z,4.07
2018-03-14T05:02:09.981Z,5.77
2018-03-14T05:07:38.894Z,5.23
2018-03-14T05:13:07.930Z,5.47
2018-03-14T05:18:36.214Z,5.47
2018-03-14T05:24:05.031Z,4.70
2018-03-14T05:29:33.950Z,4.90
2018-03-14T05:35:02.409Z,4.40
2018-03-14T05:40:30.575Z,5.70
2018-03-14T05:45:58.741Z,4.97
2018-03-14T05:51:27.720Z,7.00
2018-03-14T05:56:55.931Z,5.07
2018-03-14T06:02:24.158Z,4.13
2018-03-14T06:07:52.357Z,4.90
2018-03-14T06:13:21.193Z,4.00
2018-03-14T06:18:50.125Z,4.30
2018-03-14T06:24:18.284Z,4.63
2018-03-14T06:29:46.454Z,3.30
2018-03-14T06:35:14.570Z,3.77
2018-03-14T06:40:43.500Z,3.17
2018-03-14T06:46:12.436Z,4.30
2018-03-14T06:51:41.348Z,3.60
2018-03-14T06:57:09.515Z,4.30
2018-03-14T07:02:58.548Z,3.50
2018-03-14T07:08:27.481Z,3.77
2018-03-14T07:13:55.643Z,4.40
2018-03-14T07:19:23.766Z,3.00
2018-03-14T07:24:51.919Z,3.30
2018-03-14T07:30:20.088Z,2.97
2018-03-14T07:35:48.240Z,3.20
2018-03-14T07:41:16.407Z,3.60
2018-03-14T07:46:44.566Z,3.43
2018-03-14T07:52:14.641Z,3.50
2018-03-14T07:57:43.567Z,3.77
2018-03-14T08:03:11.761Z,4.70
2018-03-14T08:08:41.236Z,3.73
2018-03-14T08:14:09.402Z,4.50
2018-03-14T08:19:37.555Z,4.93
2018-03-14T08:25:05.681Z,4.60
2018-03-14T08:30:33.847Z,4.87
2018-03-14T08:36:02.751Z,4.83
2018-03-14T08:41:30.901Z,5.73
2018-03-14T08:46:59.846Z,5.40
2018-03-14T08:52:28.079Z,6.60
2018-03-14T08:57:56.225Z,4.40
2018-03-14T09:03:24.365Z,5.47
2018-03-14T09:08:52.516Z,6.50
2018-03-14T09:14:21.447Z,6.23
2018-03-14T09:19:50.359Z,6.00
2018-03-14T09:25:18.513Z,5.00
2018-03-14T09:30:52.571Z,6.13
2018-03-14T09:36:21.480Z,5.53
2018-03-14T09:41:49.698Z,5.37
2018-03-14T09:47:17.894Z,5.77
2018-03-14T09:52:46.066Z,5.70
2018-03-14T09:58:14.199Z,6.20
2018-03-14T10:03:42.335Z,5.87
2018-03-14T10:09:11.454Z,5.90
2018-03-14T10:14:40.387Z,6.87
2018-03-14T10:20:09.344Z,5.60
2018-03-14T10:25:37.628Z,5.80
2018-03-14T10:31:06.491Z,6.73
2018-03-14T10:36:34.646Z,6.20
2018-03-14T10:42:02.812Z,7.67
2018-03-14T10:47:30.961Z,7.00
2018-03-14T10:52:59.107Z,7.70
2018-03-14T10:58:28.056Z,7.20
2018-03-14T11:03:56.271Z,6.80
2018-03-14T11:09:24.513Z,6.40
2018-03-14T11:14:52.660Z,7.60
2018-03-14T11:20:21.663Z,6.90
2018-03-14T11:25:49.781Z,7.23
2018-03-14T11:31:18.657Z,7.00
2018-03-14T11:36:47.573Z,6.47
2018-03-14T11:42:15.708Z,6.10
2018-03-14T11:47:43.859Z,6.90
2018-03-14T11:53:12.028Z,7.07
2018-03-14T11:58:40.180Z,5.87
2018-03-14T12:04:08.331Z,6.27
2018-03-14T12:09:38.471Z,6.70
2018-03-14T12:15:06.611Z,6.17
2018-03-14T12:20:34.827Z,6.00
2018-03-14T12:26:03.064Z,6.47
2018-03-14T12:31:31.209Z,5.90
2018-03-14T12:36:59.380Z,5.70
2018-03-14T12:42:27.549Z,5.37
2018-03-14T12:47:56.574Z,4.97
2018-03-14T12:53:24.805Z,5.80
2018-03-14T12:58:53.019Z,5.90
2018-03-14T13:04:21.191Z,5.70
2018-03-14T13:09:49.339Z,4.50
2018-03-14T13:15:17.509Z,4.10
2018-03-14T13:20:46.471Z,5.33
2018-03-14T13:26:14.644Z,4.80
2018-03-14T13:31:43.927Z,4.40
2018-03-14T13:37:12.103Z,4.83
2018-03-14T13:42:40.314Z,5.37
2018-03-14T13:48:14.760Z,5.07
2018-03-14T13:53:42.932Z,4.10
2018-03-14T13:59:11.101Z,5.30
2018-03-14T14:04:39.282Z,5.03
2018-03-14T14:10:07.923Z,4.00
2018-03-14T14:15:40.097Z,4.50
2018-03-14T14:21:09.207Z,4.80
2018-03-14T14:26:37.427Z,5.10
2018-03-14T14:32:05.568Z,4.67
2018-03-14T14:37:41.855Z,5.10
2018-03-14T14:43:10.232Z,5.60
2018-03-14T14:48:40.770Z,6.40
2018-03-14T14:54:10.549Z,6.90
2018-03-14T14:59:38.716Z,5.43
2018-03-14T15:05:06.871Z,5.90
2018-03-14T15:10:35.086Z,5.00
2018-03-14T15:16:04.044Z,5.20
2018-03-14T15:21:32.385Z,6.03
2018-03-14T15:27:00.632Z,5.50
2018-03-14T15:32:29.584Z,4.87
2018-03-14T15:37:57.775Z,6.67
2018-03-14T15:43:25.959Z,7.20
2018-03-14T15:48:54.223Z,6.40
2018-03-14T15:54:22.589Z,6.37
2018-03-14T15:59:50.740Z,6.40
2018-03-14T16:05:18.965Z,6.77
2018-03-14T16:10:47.152Z,6.50
2018-03-14T16:16:15.464Z,6.60
2018-03-14T16:21:43.721Z,6.40
2018-03-14T16:27:12.134Z,7.30
2018-03-14T16:32:40.333Z,7.20
2018-03-14T16:38:09.304Z,7.90
2018-03-14T16:43:37.577Z,7.50
2018-03-14T16:49:06.512Z,7.40
2018-03-14T16:54:37.412Z,6.80
2018-03-14T17:00:05.568Z,6.73
2018-03-14T17:05:33.731Z,7.23
2018-03-14T17:11:01.925Z,7.00
2018-03-14T17:16:30.102Z,7.43
2018-03-14T17:21:58.260Z,8.10
2018-03-14T17:27:27.209Z,7.97
2018-03-14T17:32:55.426Z,8.23
2018-03-14T17:38:23.722Z,8.30
2018-03-14T17:43:51.911Z,9.07
2018-03-14T17:49:20.068Z,8.00
2018-03-14T17:54:48.215Z,9.00
2018-03-14T18:00:16.357Z,8.83
2018-03-14T18:05:44.508Z,8.70
2018-03-14T18:11:12.653Z,9.43
2018-03-14T18:16:41.628Z,9.63
2018-03-14T18:22:10.879Z,8.33
2018-03-14T18:27:42.979Z,9.60
2018-03-14T18:33:11.964Z,8.97
2018-03-14T18:38:54.156Z,10.43
2018-03-14T18:44:22.396Z,10.00
2018-03-14T18:49:59.438Z,9.83
2018-03-14T18:55:28.392Z,10.00
2018-03-14T19:01:00.635Z,11.47
2018-03-14T19:06:29.735Z,10.33
2018-03-14T19:11:57.944Z,11.37
2018-03-14T19:17:26.410Z,10.33
2018-03-14T19:22:56.873Z,10.90
2018-03-14T19:28:25.941Z,11.00
2018-03-14T19:33:54.145Z,11.23
2018-03-14T19:39:23.121Z,11.63
2018-03-14T19:44:51.307Z,12.33
2018-03-14T19:50:26.415Z,12.50
2018-03-14T19:55:55.622Z,11.60
2018-03-14T20:01:23.868Z,12.50
2018-03-14T20:06:52.312Z,13.90
2018-03-14T20:12:20.993Z,13.80
2018-03-14T20:17:50.401Z,12.63
2018-03-14T20:23:18.629Z,13.80
2018-03-14T20:28:46.874Z,12.20
2018-03-14T20:34:15.253Z,12.83
2018-03-14T20:39:43.436Z,13.27
2018-03-14T20:45:12.580Z,14.60
2018-03-14T20:50:46.750Z,13.60
2018-03-14T20:56:25.379Z,14.17
2018-03-14T21:01:55.673Z,14.97
2018-03-14T21:07:23.880Z,15.77
2018-03-14T21:13:08.404Z,15.60
2018-03-14T21:18:36.602Z,15.07
2018-03-14T21:24:06.095Z,17.00
2018-03-14T21:29:34.274Z,15.60
2018-03-14T21:35:02.540Z,14.80
2018-03-14T21:40:33.041Z,14.67
2018-03-14T21:46:01.953Z,15.37
2018-03-14T21:51:30.195Z,15.13
2018-03-14T21:56:58.431Z,15.80
2018-03-14T22:02:27.371Z,17.53
2018-03-14T22:07:59.368Z,17.57
2018-03-14T22:13:27.573Z,17.90
2018-03-14T22:18:55.785Z,15.80
2018-03-14T22:24:24.006Z,17.57
2018-03-14T22:29:52.214Z,17.60
2018-03-14T22:35:20.374Z,16.27
2018-03-14T22:40:48.662Z,17.33
2018-03-14T22:46:16.864Z,17.47
2018-03-14T22:51:45.789Z,16.93
2018-03-14T22:57:15.030Z,16.43
2018-03-14T23:02:43.626Z,15.20
2018-03-14T23:08:12.582Z,23.95
2018-03-14T23:13:40.737Z,18.20
2018-03-14T23:42:58.962Z,16.70
2018-03-14T23:48:40.241Z,18.50
2018-03-14T23:54:08.400Z,17.70
2018-03-14T23:59:37.498Z,17.70
